Terminal Aerodrome Forecast
Issued by NWS

Home | Current Version | Previous Version | Graphics & Text | Print | Product List | Glossary On
Versions: 1 2 3 4 5 6 7 8 9 10 11 12 13 14 15 16 17
000
FTUS43 KBIS 211100
TAFJMS
TAF
KJMS 211135Z 2112/2212 17006KT 6SM BR SCT010
     FM211400 12012KT P6SM SCT090
      TEMPO 2122/2202 VRB30G40KT 2SM +TSRAGR OVC050CB
     FM220200 12012KT P6SM -TSRA OVC050CB
     FM220500 04008KT P6SM BKN050=

USA.gov is the U.S. government's official web portal to all federal, state and local government web resources and services.